createdAt,value
2018-11-27T00:01:03.152Z,11.80
2018-11-27T00:04:08.150Z,14.00
2018-11-27T00:06:40.574Z,10.87
2018-11-27T00:09:13.041Z,12.50
2018-11-27T00:11:45.402Z,13.97
2018-11-27T00:14:18.682Z,12.37
2018-11-27T00:16:51.127Z,12.37
2018-11-27T00:19:23.780Z,12.57
2018-11-27T00:21:56.097Z,12.40
2018-11-27T00:24:28.481Z,13.20
2018-11-27T00:27:00.775Z,12.23
2018-11-27T00:29:33.070Z,13.07
2018-11-27T00:32:05.392Z,9.67
2018-11-27T00:34:37.977Z,11.80
2018-11-27T00:37:10.392Z,14.13
2018-11-27T00:39:42.548Z,12.27
2018-11-27T00:42:15.114Z,12.80
2018-11-27T00:44:47.424Z,10.30
2018-11-27T00:47:19.449Z,12.23
2018-11-27T00:49:51.990Z,13.30
2018-11-27T00:52:24.315Z,13.37
2018-11-27T00:54:58.696Z,10.80
2018-11-27T00:57:29.366Z,9.47
2018-11-27T01:00:01.380Z,9.37
2018-11-27T01:02:33.747Z,10.77
2018-11-27T01:05:06.443Z,11.53
2018-11-27T01:07:38.718Z,11.67
2018-11-27T01:10:17.639Z,10.40
2018-11-27T01:12:50.197Z,11.50
2018-11-27T01:15:23.403Z,11.12
2018-11-27T01:17:58.564Z,11.43
2018-11-27T01:20:31.246Z,11.23
2018-11-27T01:23:03.761Z,14.90
2018-11-27T01:25:35.810Z,10.70
2018-11-27T01:28:08.384Z,10.60
2018-11-27T01:30:41.806Z,13.20
2018-11-27T01:33:14.965Z,15.35
2018-11-27T01:35:47.509Z,11.78
2018-11-27T01:38:20.745Z,11.40
2018-11-27T01:40:53.128Z,11.73
2018-11-27T01:43:26.175Z,9.90
2018-11-27T01:45:58.626Z,12.45
2018-11-27T01:48:32.454Z,13.80
2018-11-27T01:51:04.798Z,13.30
2018-11-27T01:53:37.156Z,12.37
2018-11-27T01:56:09.336Z,14.07
2018-11-27T01:58:41.848Z,15.70
2018-11-27T02:01:13.985Z,12.00
2018-11-27T02:03:45.997Z,13.72
2018-11-27T02:06:21.760Z,15.23
2018-11-27T02:08:55.178Z,12.25
2018-11-27T02:11:30.019Z,11.73
2018-11-27T02:14:02.528Z,17.12
2018-11-27T02:16:34.963Z,12.45
2018-11-27T02:19:07.159Z,11.20
2018-11-27T02:21:41.594Z,12.70
2018-11-27T02:24:16.022Z,9.70
2018-11-27T02:26:49.199Z,12.60
2018-11-27T02:29:23.270Z,10.93
2018-11-27T02:31:55.844Z,15.32
2018-11-27T02:34:28.624Z,12.35
2018-11-27T02:37:03.454Z,16.80
2018-11-27T02:39:36.969Z,14.98
2018-11-27T02:42:09.766Z,14.90
2018-11-27T02:44:42.215Z,17.30
2018-11-27T02:47:14.403Z,12.93
2018-11-27T02:49:46.426Z,14.35
2018-11-27T02:52:19.178Z,15.00
2018-11-27T02:54:51.777Z,11.68
2018-11-27T02:57:23.930Z,17.62
2018-11-27T02:59:56.304Z,15.78
2018-11-27T03:02:28.701Z,18.45
2018-11-27T03:05:01.221Z,19.45
2018-11-27T03:07:33.716Z,16.70
2018-11-27T03:10:06.097Z,21.97
2018-11-27T03:12:38.681Z,21.33
2018-11-27T03:15:13.954Z,19.25
2018-11-27T03:17:46.359Z,17.17
2018-11-27T03:20:19.357Z,21.33
2018-11-27T03:22:51.814Z,16.57
2018-11-27T03:25:25.216Z,15.05
2018-11-27T03:27:57.710Z,18.73
2018-11-27T03:30:30.775Z,14.80
2018-11-27T03:33:02.909Z,14.73
2018-11-27T03:35:35.215Z,13.77
2018-11-27T03:38:07.891Z,14.83
2018-11-27T03:40:39.729Z,13.43
2018-11-27T03:43:11.542Z,12.70
2018-11-27T03:45:44.046Z,15.07
2018-11-27T03:48:16.254Z,15.43
2018-11-27T03:50:48.870Z,16.35
2018-11-27T03:53:21.535Z,16.05
2018-11-27T03:55:54.426Z,14.58
2018-11-27T03:58:27.072Z,13.77
2018-11-27T04:00:59.610Z,14.95
2018-11-27T04:03:32.304Z,19.60
2018-11-27T04:06:04.740Z,14.17
2018-11-27T04:08:38.041Z,16.82
2018-11-27T04:11:10.381Z,19.20
2018-11-27T04:13:43.037Z,21.20
2018-11-27T04:16:15.650Z,18.90
2018-11-27T04:18:47.961Z,19.65
2018-11-27T04:21:20.304Z,25.05
2018-11-27T04:23:53.190Z,23.45
2018-11-27T04:26:25.569Z,19.70
2018-11-27T04:28:58.104Z,20.95
2018-11-27T04:31:30.209Z,17.48
2018-11-27T04:34:02.688Z,15.80
2018-11-27T04:36:35.023Z,16.60
2018-11-27T04:39:09.788Z,15.48
2018-11-27T04:41:42.174Z,14.73
2018-11-27T04:44:14.745Z,18.98
2018-11-27T04:46:47.097Z,18.73
2018-11-27T04:49:19.715Z,16.85
2018-11-27T04:51:52.051Z,21.45
2018-11-27T04:54:25.024Z,20.32
2018-11-27T04:56:57.374Z,20.75
2018-11-27T04:59:29.791Z,24.25
2018-11-27T05:02:01.726Z,19.82
2018-11-27T05:04:34.105Z,24.52
2018-11-27T05:07:06.281Z,20.27
2018-11-27T05:09:39.288Z,17.60
2018-11-27T05:12:12.115Z,22.00
2018-11-27T05:14:44.446Z,20.27
2018-11-27T05:17:16.915Z,19.70
2018-11-27T05:19:49.137Z,17.17
2018-11-27T05:22:20.845Z,16.17
2018-11-27T05:24:52.584Z,14.20
2018-11-27T05:27:24.607Z,14.73
2018-11-27T05:29:57.243Z,17.25
2018-11-27T05:32:29.309Z,15.20
2018-11-27T05:35:01.729Z,12.82
2018-11-27T05:37:34.043Z,15.18
2018-11-27T05:40:08.138Z,13.35
2018-11-27T05:42:41.095Z,12.05
2018-11-27T05:45:14.356Z,14.33
2018-11-27T05:47:46.234Z,12.53
2018-11-27T05:50:19.490Z,12.63
2018-11-27T05:52:52.044Z,12.45
2018-11-27T05:55:24.644Z,11.68
2018-11-27T05:57:57.967Z,13.38
2018-11-27T06:00:31.588Z,14.30
2018-11-27T06:03:04.152Z,12.60
2018-11-27T06:05:35.942Z,12.85
2018-11-27T06:08:08.532Z,11.80
2018-11-27T06:10:40.855Z,10.25
2018-11-27T06:13:13.079Z,13.03
2018-11-27T06:15:45.745Z,13.80
2018-11-27T06:18:17.819Z,13.18
2018-11-27T06:20:49.947Z,14.57
2018-11-27T06:23:22.095Z,13.60
2018-11-27T06:25:54.971Z,16.17
2018-11-27T06:28:27.228Z,15.03
2018-11-27T06:30:59.437Z,13.93
2018-11-27T06:33:31.744Z,16.95
2018-11-27T06:36:04.809Z,15.30
2018-11-27T06:38:37.119Z,16.87
2018-11-27T06:41:09.579Z,18.00
2018-11-27T06:43:41.881Z,17.37
2018-11-27T06:46:14.243Z,17.20
2018-11-27T06:48:46.631Z,21.13
2018-11-27T06:51:19.190Z,18.50
2018-11-27T06:53:51.556Z,16.87
2018-11-27T06:56:24.031Z,21.63
2018-11-27T06:58:55.973Z,20.90
2018-11-27T07:01:28.334Z,17.17
2018-11-27T07:04:00.505Z,15.70
2018-11-27T07:06:32.769Z,18.83
2018-11-27T07:09:05.377Z,15.70
2018-11-27T07:11:37.474Z,13.13
2018-11-27T07:14:09.978Z,15.70
2018-11-27T07:16:42.022Z,15.50
2018-11-27T07:19:14.438Z,13.90
2018-11-27T07:21:46.780Z,14.00
2018-11-27T07:24:19.069Z,16.33
2018-11-27T07:26:52.962Z,13.53
2018-11-27T07:29:24.239Z,19.90
2018-11-27T07:31:56.627Z,16.60
2018-11-27T07:34:29.252Z,16.97
2018-11-27T07:37:02.164Z,15.47
2018-11-27T07:39:34.340Z,16.07
2018-11-27T07:42:06.535Z,12.83
2018-11-27T07:44:39.162Z,18.27
2018-11-27T07:47:11.464Z,14.70
2018-11-27T07:49:43.783Z,18.37
2018-11-27T07:52:16.397Z,12.27
2018-11-27T07:54:49.007Z,13.93
2018-11-27T07:57:21.345Z,12.73
2018-11-27T07:59:53.888Z,11.73
2018-11-27T08:02:26.836Z,10.93
2018-11-27T08:04:58.992Z,10.10
2018-11-27T08:07:31.255Z,7.73
2018-11-27T08:10:03.777Z,10.27
2018-11-27T08:12:36.148Z,6.53
2018-11-27T08:15:10.977Z,6.70
2018-11-27T08:17:43.611Z,9.87
2018-11-27T08:20:20.622Z,10.57
2018-11-27T08:22:53.219Z,12.33
2018-11-27T08:25:25.674Z,13.90
2018-11-27T08:27:58.082Z,13.87
2018-11-27T08:30:30.804Z,12.90
2018-11-27T08:33:03.074Z,14.10
2018-11-27T08:35:35.450Z,12.93
2018-11-27T08:38:07.730Z,14.40
2018-11-27T08:40:39.765Z,14.00
2018-11-27T08:43:11.993Z,14.47
2018-11-27T08:45:44.267Z,15.83
2018-11-27T08:48:16.458Z,14.33
2018-11-27T08:50:49.408Z,13.17
2018-11-27T08:53:21.711Z,10.60
2018-11-27T08:55:54.178Z,12.00
2018-11-27T08:58:26.324Z,10.50
2018-11-27T09:00:58.365Z,9.07
2018-11-27T09:03:31.154Z,11.03
2018-11-27T09:06:03.565Z,9.43
2018-11-27T09:08:36.335Z,9.30
2018-11-27T09:11:09.207Z,9.57
2018-11-27T09:13:42.227Z,8.57
2018-11-27T09:16:13.714Z,9.17
2018-11-27T09:18:45.997Z,10.80
2018-11-27T09:21:18.004Z,9.37
2018-11-27T09:23:50.357Z,9.50
2018-11-27T09:26:23.492Z,15.10
2018-11-27T09:28:55.508Z,16.33
2018-11-27T09:31:27.906Z,16.13
2018-11-27T09:34:00.462Z,18.03
2018-11-27T09:36:33.066Z,17.57
2018-11-27T09:39:06.002Z,19.40
2018-11-27T09:41:38.049Z,22.03
2018-11-27T09:44:10.576Z,21.73
2018-11-27T09:46:42.708Z,20.33
2018-11-27T09:49:14.693Z,26.47
2018-11-27T09:51:47.226Z,20.63
2018-11-27T09:54:19.438Z,26.57
2018-11-27T09:56:51.686Z,29.07
2018-11-27T09:59:23.841Z,26.23
2018-11-27T10:01:56.018Z,38.20
2018-11-27T10:04:28.611Z,32.93
2018-11-27T10:07:01.074Z,28.00
2018-11-27T10:09:33.576Z,33.67
2018-11-27T10:12:05.820Z,35.98
2018-11-27T10:14:37.837Z,34.95
2018-11-27T10:17:09.915Z,31.68
2018-11-27T10:19:42.339Z,33.13
2018-11-27T10:22:14.703Z,32.13
2018-11-27T10:24:46.858Z,35.43
2018-11-27T10:27:19.338Z,29.37
2018-11-27T10:29:51.635Z,31.40
2018-11-27T10:32:23.939Z,24.33
2018-11-27T10:34:55.944Z,29.03
2018-11-27T10:37:28.172Z,26.10
2018-11-27T10:40:00.727Z,26.33
2018-11-27T10:42:32.981Z,29.37
2018-11-27T10:45:06.099Z,37.27
2018-11-27T10:47:38.367Z,45.67
2018-11-27T10:50:13.367Z,58.67
2018-11-27T10:52:46.654Z,37.30
2018-11-27T10:55:19.722Z,30.57
2018-11-27T10:57:52.320Z,22.13
2018-11-27T11:02:38.884Z,14.67
2018-11-27T11:05:11.103Z,5.60
2018-11-27T11:07:43.329Z,6.60
2018-11-27T11:10:15.782Z,6.20
2018-11-27T11:12:48.210Z,5.73
2018-11-27T11:15:20.622Z,5.37
2018-11-27T11:17:52.992Z,5.67
2018-11-27T11:20:25.572Z,4.97
2018-11-27T11:22:58.078Z,5.43
2018-11-27T11:25:30.482Z,6.47
2018-11-27T11:28:02.601Z,9.10
2018-11-27T11:30:34.845Z,7.73
2018-11-27T11:33:07.483Z,4.27
2018-11-27T11:35:39.583Z,4.07
2018-11-27T11:38:11.945Z,4.70
2018-11-27T11:40:44.275Z,4.13
2018-11-27T11:43:16.431Z,4.73
2018-11-27T11:45:49.093Z,5.53
2018-11-27T11:48:21.327Z,3.60
2018-11-27T11:50:53.502Z,3.47
2018-11-27T11:53:25.838Z,5.63
2018-11-27T11:55:58.140Z,7.43
2018-11-27T11:58:30.694Z,4.10
2018-11-27T12:01:03.100Z,2.80
2018-11-27T12:03:35.676Z,4.57
2018-11-27T12:06:08.043Z,4.13
2018-11-27T12:08:40.177Z,3.87
2018-11-27T12:11:12.351Z,3.70
2018-11-27T12:13:44.897Z,3.57
2018-11-27T12:16:17.159Z,5.80
2018-11-27T12:18:49.236Z,3.70
2018-11-27T12:21:22.423Z,3.47
2018-11-27T12:23:54.834Z,4.30
2018-11-27T12:26:27.554Z,4.20
2018-11-27T12:29:00.402Z,3.87
2018-11-27T12:31:32.713Z,3.77
2018-11-27T12:34:05.083Z,5.03
2018-11-27T12:36:37.647Z,3.90
2018-11-27T12:39:11.348Z,5.10
2018-11-27T12:41:43.638Z,3.40
2018-11-27T12:44:16.062Z,3.50
2018-11-27T12:46:48.786Z,2.53
2018-11-27T12:49:21.236Z,3.03
2018-11-27T12:51:53.542Z,4.73
2018-11-27T12:54:25.973Z,3.50
2018-11-27T12:56:58.441Z,2.90
2018-11-27T12:59:30.463Z,5.13
2018-11-27T13:02:02.707Z,3.40
2018-11-27T13:04:34.902Z,3.50
2018-11-27T13:07:07.784Z,3.63
2018-11-27T13:09:40.076Z,3.53
2018-11-27T13:12:12.219Z,3.87
2018-11-27T13:14:44.664Z,8.90
2018-11-27T13:17:16.788Z,16.20
2018-11-27T13:19:49.347Z,27.90
2018-11-27T13:22:21.527Z,28.63
2018-11-27T13:24:53.870Z,29.73
2018-11-27T13:27:26.212Z,38.40
2018-11-27T13:29:58.211Z,30.60
2018-11-27T13:32:30.379Z,33.57
2018-11-27T13:35:02.546Z,41.97
2018-11-27T13:37:34.999Z,34.67
2018-11-27T13:40:07.847Z,28.20
2018-11-27T13:42:40.231Z,25.00
2018-11-27T13:45:14.972Z,36.23
2018-11-27T13:47:47.847Z,39.07
2018-11-27T13:50:20.479Z,27.10
2018-11-27T13:52:52.817Z,19.13
2018-11-27T13:55:25.390Z,24.03
2018-11-27T13:57:57.537Z,19.30
2018-11-27T14:00:29.554Z,9.07
2018-11-27T14:03:01.879Z,5.80
2018-11-27T14:05:34.112Z,7.80
2018-11-27T14:08:06.616Z,6.20
2018-11-27T14:10:39.525Z,5.43
2018-11-27T14:13:11.845Z,9.23
2018-11-27T14:15:44.086Z,6.67
2018-11-27T14:18:17.089Z,6.40
2018-11-27T14:20:49.326Z,5.50
2018-11-27T14:23:21.806Z,4.57
2018-11-27T14:25:54.244Z,5.23
2018-11-27T14:28:26.781Z,7.50
2018-11-27T14:30:59.008Z,6.60
2018-11-27T14:33:31.890Z,5.10
2018-11-27T14:36:04.357Z,6.10
2018-11-27T14:38:37.008Z,4.43
2018-11-27T14:41:09.152Z,6.17
2018-11-27T14:43:41.447Z,7.00
2018-11-27T14:46:14.207Z,3.87
2018-11-27T14:48:46.881Z,4.60
2018-11-27T14:51:19.467Z,2.50
2018-11-27T14:53:52.181Z,3.43
2018-11-27T14:56:24.834Z,3.23
2018-11-27T14:58:56.807Z,4.40
2018-11-27T15:01:29.115Z,2.83
2018-11-27T15:04:01.454Z,5.10
2018-11-27T15:06:33.812Z,4.63
2018-11-27T15:09:08.716Z,3.97
2018-11-27T15:11:41.034Z,3.90
2018-11-27T15:14:13.219Z,3.30
2018-11-27T15:16:45.661Z,3.20
2018-11-27T15:19:17.696Z,3.80
2018-11-27T15:21:49.783Z,4.67
2018-11-27T15:24:22.101Z,3.03
2018-11-27T15:26:55.171Z,2.77
2018-11-27T15:29:27.756Z,2.00
2018-11-27T15:32:00.044Z,3.00
2018-11-27T15:34:32.432Z,2.83
2018-11-27T15:37:04.796Z,2.60
2018-11-27T15:39:37.316Z,3.17
2018-11-27T15:42:09.582Z,3.73
2018-11-27T15:44:42.043Z,2.07
2018-11-27T15:47:14.489Z,2.30
2018-11-27T15:49:46.959Z,1.90
2018-11-27T15:52:19.436Z,1.80
2018-11-27T15:54:51.593Z,2.60
2018-11-27T15:57:23.923Z,3.17
2018-11-27T15:59:56.518Z,2.47
2018-11-27T16:02:29.087Z,2.53
2018-11-27T16:05:01.611Z,2.63
2018-11-27T16:07:34.131Z,1.63
2018-11-27T16:10:08.553Z,2.80
2018-11-27T16:12:40.935Z,4.60
2018-11-27T16:15:14.685Z,5.10
2018-11-27T16:17:46.813Z,2.60
2018-11-27T16:20:20.404Z,2.60
2018-11-27T16:22:53.677Z,3.07
2018-11-27T16:25:26.692Z,2.30
2018-11-27T16:27:59.294Z,3.10
2018-11-27T16:30:33.397Z,3.80
2018-11-27T16:33:05.658Z,4.63
2018-11-27T16:35:38.188Z,2.03
2018-11-27T16:38:10.593Z,3.53
2018-11-27T16:40:42.889Z,2.90
2018-11-27T16:43:15.282Z,2.87
2018-11-27T16:45:47.337Z,3.87
2018-11-27T16:48:19.756Z,3.13
2018-11-27T16:50:52.777Z,3.43
2018-11-27T16:53:25.118Z,3.97
2018-11-27T16:55:57.384Z,2.97
2018-11-27T16:58:29.918Z,4.80
2018-11-27T17:01:01.915Z,3.47
2018-11-27T17:03:34.520Z,4.57
2018-11-27T17:06:06.926Z,3.73
2018-11-27T17:08:39.181Z,4.20
2018-11-27T17:11:11.421Z,3.30
2018-11-27T17:13:44.049Z,3.60
2018-11-27T17:16:16.422Z,6.00
2018-11-27T17:18:48.796Z,3.53
2018-11-27T17:21:21.282Z,5.07
2018-11-27T17:23:53.830Z,4.27
2018-11-27T17:26:26.009Z,7.43
2018-11-27T17:28:58.308Z,4.10
2018-11-27T17:31:30.787Z,3.77
2018-11-27T17:34:06.245Z,5.80
2018-11-27T17:36:39.251Z,7.57
2018-11-27T17:39:14.881Z,7.73
2018-11-27T17:41:47.031Z,5.73
2018-11-27T17:44:19.790Z,6.13
2018-11-27T17:46:52.165Z,3.97
2018-11-27T17:49:24.339Z,5.23
2018-11-27T17:51:57.037Z,5.93
2018-11-27T17:54:29.604Z,6.50
2018-11-27T17:57:01.823Z,4.37
2018-11-27T17:59:33.991Z,5.27
2018-11-27T18:02:06.193Z,5.70
2018-11-27T18:04:38.741Z,5.73
2018-11-27T18:07:11.265Z,5.00
2018-11-27T18:09:43.748Z,4.30
2018-11-27T18:12:16.031Z,2.93
2018-11-27T18:14:48.417Z,3.93
2018-11-27T18:17:20.552Z,3.33
2018-11-27T18:19:53.126Z,2.40
2018-11-27T18:22:25.317Z,5.90
2018-11-27T18:24:57.670Z,5.50
2018-11-27T18:27:30.383Z,6.37
2018-11-27T18:30:02.884Z,3.63
2018-11-27T18:32:35.492Z,4.30
2018-11-27T18:35:08.110Z,4.33
2018-11-27T18:37:40.562Z,3.70
2018-11-27T18:40:14.021Z,3.83
2018-11-27T18:42:46.328Z,4.97
2018-11-27T18:45:33.470Z,7.80
2018-11-27T18:48:05.691Z,9.10
2018-11-27T18:50:38.402Z,4.00
2018-11-27T18:53:10.785Z,4.00
2018-11-27T18:55:43.321Z,5.40
2018-11-27T18:58:15.680Z,6.80
2018-11-27T19:00:48.256Z,5.03
2018-11-27T19:03:20.591Z,5.33
2018-11-27T19:05:52.790Z,3.93
2018-11-27T19:08:24.937Z,8.13
2018-11-27T19:10:57.321Z,13.50
2018-11-27T19:13:29.677Z,8.80
2018-11-27T19:16:02.063Z,11.30
2018-11-27T19:18:34.413Z,10.70
2018-11-27T19:21:06.506Z,10.87
2018-11-27T19:23:38.897Z,11.40
2018-11-27T19:26:11.335Z,6.13
2018-11-27T19:28:43.783Z,7.37
2018-11-27T19:31:16.282Z,7.57
2018-11-27T19:33:48.624Z,10.27
2018-11-27T19:36:20.985Z,9.13
2018-11-27T19:38:53.129Z,6.77
2018-11-27T19:41:25.645Z,8.50
2018-11-27T19:43:57.661Z,7.13
2018-11-27T19:46:30.171Z,7.63
2018-11-27T19:49:02.484Z,6.93
2018-11-27T19:51:36.006Z,6.03
2018-11-27T19:54:08.864Z,8.23
2018-11-27T19:56:41.137Z,10.93
2018-11-27T19:59:13.821Z,16.20
2018-11-27T20:01:45.895Z,9.00
2018-11-27T20:04:19.221Z,10.60
2018-11-27T20:06:51.175Z,9.73
2018-11-27T20:09:23.563Z,8.40
2018-11-27T20:11:55.970Z,9.73
2018-11-27T20:14:28.292Z,11.10
2018-11-27T20:17:00.513Z,12.07
2018-11-27T20:19:32.902Z,8.40
2018-11-27T20:22:04.954Z,19.57
2018-11-27T20:24:37.489Z,14.07
2018-11-27T20:27:09.671Z,9.47
2018-11-27T20:29:42.058Z,10.00
2018-11-27T20:32:15.635Z,14.10
2018-11-27T20:34:47.969Z,13.67
2018-11-27T20:37:20.092Z,11.10
2018-11-27T20:39:52.662Z,5.97
2018-11-27T20:42:24.946Z,11.00
2018-11-27T20:44:57.259Z,12.60
2018-11-27T20:47:29.250Z,8.73
2018-11-27T20:50:01.610Z,7.97
2018-11-27T20:52:34.003Z,10.90
2018-11-27T20:55:06.469Z,13.00
2018-11-27T20:57:38.910Z,7.37
2018-11-27T21:00:17.770Z,12.73
2018-11-27T21:02:50.108Z,24.33
2018-11-27T21:05:22.645Z,26.33
2018-11-27T21:07:55.128Z,14.07
2018-11-27T21:10:27.674Z,11.10
2018-11-27T21:13:00.144Z,11.60
2018-11-27T21:15:32.657Z,11.10
2018-11-27T21:18:04.831Z,12.07
2018-11-27T21:20:37.259Z,12.13
2018-11-27T21:23:09.546Z,11.40
2018-11-27T21:25:42.080Z,10.70
2018-11-27T21:28:16.445Z,11.93
2018-11-27T21:30:49.775Z,8.90
2018-11-27T21:33:22.132Z,11.80
2018-11-27T21:35:54.487Z,11.57
2018-11-27T21:38:26.683Z,10.83
2018-11-27T21:40:59.038Z,10.90
2018-11-27T21:43:31.220Z,8.90
2018-11-27T21:46:03.508Z,8.90
2018-11-27T21:48:35.477Z,11.80
2018-11-27T21:51:07.508Z,9.20
2018-11-27T21:53:39.964Z,7.93
2018-11-27T21:56:12.509Z,11.13
2018-11-27T21:58:44.890Z,12.17
2018-11-27T22:01:17.510Z,12.10
2018-11-27T22:03:49.802Z,14.83
2018-11-27T22:06:21.916Z,12.67
2018-11-27T22:08:54.057Z,14.33
2018-11-27T22:11:26.434Z,16.40
2018-11-27T22:13:58.586Z,13.53
2018-11-27T22:16:30.768Z,16.03
2018-11-27T22:19:03.122Z,20.83
2018-11-27T22:21:35.275Z,14.80
2018-11-27T22:24:07.741Z,10.73
2018-11-27T22:26:39.872Z,12.50
2018-11-27T22:29:12.179Z,16.30
2018-11-27T22:31:44.545Z,15.03
2018-11-27T22:34:16.616Z,17.30
2018-11-27T22:36:49.119Z,13.57
2018-11-27T22:39:21.554Z,12.17
2018-11-27T22:41:53.941Z,15.27
2018-11-27T22:44:26.452Z,16.60
2018-11-27T22:46:59.081Z,20.40
2018-11-27T22:49:31.201Z,22.90
2018-11-27T22:52:03.899Z,20.13
2018-11-27T22:54:36.336Z,18.80
2018-11-27T22:57:08.451Z,23.50
2018-11-27T22:59:40.698Z,23.07
2018-11-27T23:02:13.220Z,16.90
2018-11-27T23:04:45.463Z,22.93
2018-11-27T23:07:49.325Z,14.43
2018-11-27T23:10:22.050Z,14.80
2018-11-27T23:12:54.271Z,22.37
2018-11-27T23:15:26.784Z,15.70
2018-11-27T23:17:59.196Z,16.07
2018-11-27T23:20:31.392Z,18.07
2018-11-27T23:23:03.692Z,17.00
2018-11-27T23:25:36.043Z,20.20
2018-11-27T23:28:08.235Z,18.17
2018-11-27T23:30:40.594Z,19.53
2018-11-27T23:33:12.904Z,14.30
2018-11-27T23:35:44.912Z,21.40
2018-11-27T23:38:17.500Z,12.80
2018-11-27T23:40:49.837Z,21.97
2018-11-27T23:43:22.103Z,14.60
2018-11-27T23:45:54.709Z,17.47
2018-11-27T23:48:27.024Z,13.43
2018-11-27T23:51:00.097Z,20.87
2018-11-27T23:53:32.592Z,15.63
2018-11-27T23:56:05.064Z,17.00
2018-11-27T23:58:37.560Z,14.40
